Flight Track Log - Related Links

Times and Time Zones

All times are in EST time to prevent confusion due to time zone crossing. See the N92PK flight status page for this flight to view local times or setup timezone preferences in your user account.

Time Position Orientation Groundspeed Altitude Reporting Facility
EST Latitude Longitude Course Direction KTS MPH feet Rate Location/Type
Sat 08:19:51 AM 27.1440 -80.1510 176° South 122 140 2,300  Level FlightAware ADS-B
Sat 08:20:30 AM 27.1280 -80.1650 218° Southwest 142 163 3,000 1,000 Climbing FlightAware ADS-B
Sat 08:21:09 AM 27.1350 -80.1940 285° West 150 173 3,600 649 Climbing FlightAware ADS-B
Sat 08:21:44 AM 27.1410 -80.2210 284° West 171 197 3,800 316 Climbing FlightAware ADS-B
Sat 08:22:25 AM 27.1510 -80.2580 287° West 175 201 4,000 575 Climbing FlightAware ADS-B
Sat 08:22:57 AM 27.1570 -80.2850 284° West 165 190 4,500 800 Climbing FlightAware ADS-B
Sat 08:23:25 AM 27.1630 -80.3090 286° West 166 191 4,800 222 Climbing FlightAware ADS-B
Sat 08:24:18 AM 27.1730 -80.3540 284° West 176 203 4,800  Level FlightAware ADS-B
Sat 08:24:43 AM 27.1770 -80.3720 284° West 176 203 4,800  Level FlightAware ADS-B
Sat 08:25:21 AM 27.1850 -80.4100 283° West 184 212 4,800 324 Level FlightAware ADS-B
Sat 08:25:57 AM 27.1940 -80.4420 288° West 173 199 5,200 852 Climbing FlightAware ADS-B
Sat 08:26:24 AM 27.2100 -80.4510 333° Northwest 5,600 908 Climbing FlightAware ADS-B
Sat 08:27:56 AM 27.2770 -80.4650 349° North 158 182 7,000 936 Climbing FlightAware ADS-B
Sat 08:28:13 AM 27.2910 -80.4680 349° North 158 182 7,300 419 Climbing FlightAware ADS-B
Sat 08:28:39 AM 27.3070 -80.4710 351° North 158 182 7,300 903 Level FlightAware ADS-B
Sat 08:29:46 AM 27.3570 -80.4810 350° North 149 171 8,700 968 Climbing FlightAware ADS-B
Sat 08:30:12 AM 27.3760 -80.4850 349° North 162 186 8,800 146 Climbing FlightAware ADS-B
Sat 08:30:27 AM 27.3890 -80.4870 352° North 166 191 8,800  Level FlightAware ADS-B
Sat 08:31:21 AM 27.4290 -80.4960 349° North 181 208 8,800  Level FlightAware ADS-B
Sat 08:32:00 AM 27.4560 -80.5020 349° North 181 208 8,800  Level FlightAware ADS-B
Sat 08:32:24 AM 27.4730 -80.5050 351° North 181 208 8,800  Level FlightAware ADS-B
Sat 08:33:00 AM 27.4980 -80.5110 348° North 181 208 8,800  Level FlightAware ADS-B
Sat 08:33:12 AM 27.5070 -80.5130 349° North 181 208 8,800  Level FlightAware ADS-B
Sat 08:34:16 AM 27.5780 -80.5260 351° North 180 207 8,800  Level FlightAware ADS-B
Sat 08:34:58 AM 27.6090 -80.5330 349° North 180 207 8,800  Level FlightAware ADS-B
Sat 08:35:22 AM 27.6260 -80.5370 348° North 180 207 8,800  Level FlightAware ADS-B
Sat 08:35:50 AM 27.6550 -80.5420 351° North 180 207 8,800 107 Level FlightAware ADS-B
Sat 08:37:14 AM 27.7186 -80.5561 351° North 180 207 9,000 83 Climbing Miami Center
Sat 08:38:14 AM 27.7747 -80.5672 350° North 180 207 9,000  Level Miami Center
Sat 08:39:14 AM 27.8247 -80.5783 349° North 180 207 9,000  Level Miami Center
Sat 08:40:59 AM 27.9000 -80.6000 346° North 172 198 9,000  Level Orlando TRACON
Sat 08:41:59 AM 27.9500 -80.6000 360° North 172 198 9,000  Level Orlando TRACON
Sat 08:43:05 AM 28.0000 -80.6167 344° North 171 197 9,000  Level Orlando TRACON
Sat 08:44:05 AM 28.0500 -80.6167 360° North 176 203 9,000  Level Orlando TRACON
Sat 08:44:59 AM 28.1000 -80.6333 344° North 178 205 9,000  Level Orlando TRACON
Sat 08:45:59 AM 28.1500 -80.6500 344° North 185 213 9,000  Level Orlando TRACON
Sat 08:46:59 AM 28.2000 -80.6667 344° North 174 200 9,000  Level Orlando TRACON
Sat 08:48:00 AM 28.2333 -80.6833 336° Northwest 175 201 9,000  Level Orlando TRACON
Sat 08:49:00 AM 28.2833 -80.7000 344° North 174 200 9,000  Level Orlando TRACON
Sat 08:50:00 AM 28.3333 -80.7167 344° North 177 204 9,000  Level Orlando TRACON
Sat 08:51:06 AM 28.3833 -80.7500 330° Northwest 178 205 9,000  Level Orlando TRACON
Sat 08:52:06 AM 28.4333 -80.7500 360° North 178 205 9,000  Level Orlando TRACON
Sat 08:53:00 AM 28.4667 -80.7333 24° Northeast 175 201 9,000  Level Orlando TRACON
Sat 08:54:00 AM 28.5167 -80.7167 16° North 179 206 9,000  Level Orlando TRACON
Sat 08:55:06 AM 28.5667 -80.7000 16° North 175 201 9,000  Level Orlando TRACON
Sat 08:56:01 AM 28.6167 -80.7000 360° North 177 204 9,000  Level Orlando TRACON
Sat 08:57:01 AM 28.6500 -80.7167 336° Northwest 172 198 9,000  Level Orlando TRACON
Sat 08:58:01 AM 28.6833 -80.7500 319° Northwest 178 205 9,000  Level Orlando TRACON
Sat 09:00:28 AM 28.7725 -80.8603 313° West 176 203 9,000  Level Jacksonville Center
Sat 09:01:17 AM 28.8000 -80.8931 314° West 179 206 9,000  Level Jacksonville Center
Sat 09:02:17 AM 28.8383 -80.9300 320° Northwest 178 205 9,000 -31 Level Jacksonville Center
Sat 09:07:43 AM 29.0960 -81.0290 320° Northwest 181 208 8,800 -33 Descending FlightAware ADS-B
Sat 09:08:22 AM 29.1270 -81.0420 340° North 182 209 8,800  Level FlightAware ADS-B
Sat 09:09:02 AM 29.1580 -81.0540 341° North 183 211 8,800  Level FlightAware ADS-B
Sat 09:09:35 AM 29.1860 -81.0650 341° North 186 214 8,800  Level FlightAware ADS-B
Sat 09:10:12 AM 29.2150 -81.0770 340° North 184 212 8,800  Level FlightAware ADS-B
Sat 09:10:40 AM 29.2380 -81.0860 341° North 186 214 8,800  Level FlightAware ADS-B
Sat 09:11:02 AM 29.2560 -81.0930 341° North 186 214 8,800  Level FlightAware ADS-B
Sat 09:11:40 AM 29.2870 -81.1060 340° North 185 213 8,800  Level FlightAware ADS-B
Sat 09:12:22 AM 29.3200 -81.1230 336° Northwest 186 214 8,800  Level FlightAware ADS-B
Sat 09:12:50 AM 29.3410 -81.1350 334° Northwest 186 214 8,800  Level FlightAware ADS-B
Sat 09:13:25 AM 29.3690 -81.1500 335° Northwest 186 214 8,800  Level FlightAware ADS-B
Sat 09:14:03 AM 29.3980 -81.1680 332° Northwest 186 214 8,800  Level FlightAware ADS-B
Sat 09:14:49 AM 29.4330 -81.1880 334° Northwest 188 216 8,800  Level FlightAware ADS-B
Sat 09:15:26 AM 29.4620 -81.2040 334° Northwest 187 215 8,800  Level FlightAware ADS-B
Sat 09:16:02 AM 29.4910 -81.2210 333° Northwest 187 215 8,800  Level FlightAware ADS-B
Sat 09:16:42 AM 29.5210 -81.2390 332° Northwest 188 216 8,800  Level FlightAware ADS-B
Sat 09:17:19 AM 29.5500 -81.2550 334° Northwest 188 216 8,800  Level FlightAware ADS-B
Sat 09:17:58 AM 29.5800 -81.2730 332° Northwest 189 217 8,800  Level FlightAware ADS-B
Sat 09:18:30 AM 29.6060 -81.2880 333° Northwest 189 217 8,800  Level FlightAware ADS-B
Sat 09:19:05 AM 29.6330 -81.3040 333° Northwest 189 217 8,800  Level FlightAware ADS-B
Sat 09:19:39 AM 29.6600 -81.3190 334° Northwest 189 217 8,800  Level FlightAware ADS-B
Sat 09:20:27 AM 29.6970 -81.3410 333° Northwest 189 217 8,800  Level FlightAware ADS-B
Sat 09:21:00 AM 29.7230 -81.3560 333° Northwest 190 219 8,800  Level FlightAware ADS-B
Sat 09:21:56 AM 29.7670 -81.3820 333° Northwest 188 216 8,800  Level FlightAware ADS-B
Sat 09:22:27 AM 29.7910 -81.3950 335° Northwest 188 216 8,800  Level FlightAware ADS-B
Sat 09:23:13 AM 29.8270 -81.4160 333° Northwest 187 215 8,800  Level FlightAware ADS-B
Sat 09:23:52 AM 29.8570 -81.4340 333° Northwest 187 215 8,800  Level FlightAware ADS-B
Sat 09:24:28 AM 29.8850 -81.4500 334° Northwest 187 215 8,800  Level FlightAware ADS-B
Sat 09:24:59 AM 29.9090 -81.4640 333° Northwest 186 214 8,800  Level FlightAware ADS-B
Sat 09:25:27 AM 29.9310 -81.4770 333° Northwest 185 213 8,800  Level FlightAware ADS-B
Sat 09:26:04 AM 29.9580 -81.4930 333° Northwest 185 213 8,800  Level FlightAware ADS-B
Sat 09:26:36 AM 29.9830 -81.5080 333° Northwest 182 209 8,800  Level FlightAware ADS-B
Sat 09:27:13 AM 30.0110 -81.5240 334° Northwest 182 209 8,800  Level FlightAware ADS-B
Sat 09:27:50 AM 30.0390 -81.5410 332° Northwest 184 212 8,800  Level FlightAware ADS-B
Sat 09:28:29 AM 30.0690 -81.5580 334° Northwest 185 213 8,800  Level FlightAware ADS-B
Sat 09:29:02 AM 30.0940 -81.5730 333° Northwest 184 212 8,800  Level FlightAware ADS-B
Sat 09:29:42 AM 30.1250 -81.5910 333° Northwest 184 212 8,800  Level FlightAware ADS-B
Sat 09:30:18 AM 30.1520 -81.6060 334° Northwest 184 212 8,800  Level FlightAware ADS-B
Sat 09:31:02 AM 30.1860 -81.6270 332° Northwest 185 213 8,800  Level FlightAware ADS-B
Sat 09:31:34 AM 30.2100 -81.6410 333° Northwest 185 213 8,800  Level FlightAware ADS-B
Sat 09:32:07 AM 30.2360 -81.6560 334° Northwest 185 213 8,800  Level FlightAware ADS-B
Sat 09:32:47 AM 30.2660 -81.6740 333° Northwest 185 213 8,800  Level FlightAware ADS-B
Sat 09:33:27 AM 30.2970 -81.6920 333° Northwest 185 213 8,800  Level FlightAware ADS-B
Sat 09:34:03 AM 30.3250 -81.7080 334° Northwest 185 213 8,800  Level FlightAware ADS-B
Sat 09:34:30 AM 30.3450 -81.7200 333° Northwest 185 213 8,800  Level FlightAware ADS-B
Sat 09:35:13 AM 30.3780 -81.7400 332° Northwest 186 214 8,800  Level FlightAware ADS-B
Sat 09:35:45 AM 30.4030 -81.7550 333° Northwest 187 215 8,800  Level FlightAware ADS-B
Sat 09:36:29 AM 30.4370 -81.7750 333° Northwest 187 215 8,800  Level FlightAware ADS-B
Sat 09:37:07 AM 30.4660 -81.7920 333° Northwest 188 216 8,800  Level FlightAware ADS-B
Sat 09:37:38 AM 30.4910 -81.8070 333° Northwest 188 216 8,800  Level FlightAware ADS-B
Sat 09:38:17 AM 30.5210 -81.8240 334° Northwest 188 216 8,800  Level FlightAware ADS-B
Sat 09:38:53 AM 30.5490 -81.8410 332° Northwest 187 215 8,800  Level FlightAware ADS-B
Sat 09:39:29 AM 30.5750 -81.8570 332° Northwest 187 215 8,800  Level FlightAware ADS-B
Sat 09:39:57 AM 30.5970 -81.8700 333° Northwest 186 214 8,800  Level FlightAware ADS-B
Sat 09:40:23 AM 30.6140 -81.8800 333° Northwest 186 214 8,800  Level FlightAware ADS-B
Sat 09:40:59 AM 30.6370 -81.8940 332° Northwest 186 214 8,800  Level FlightAware ADS-B
Sat 09:41:48 AM 30.6690 -81.9140 332° Northwest 186 214 8,800  Level FlightAware ADS-B
Sat 09:42:22 AM 30.7090 -81.9360 335° Northwest 185 213 8,800  Level FlightAware ADS-B
Sat 09:43:13 AM 30.7420 -81.9560 332° Northwest 185 213 8,800  Level FlightAware ADS-B
Sat 09:43:49 AM 30.7650 -81.9710 331° Northwest 185 213 8,800  Level FlightAware ADS-B
Sat 09:44:13 AM 30.7800 -81.9800 333° Northwest 185 213 8,800 80 Level FlightAware ADS-B
Sat 09:45:04 AM 30.8314 -82.0119 333° Northwest 186 214 8,900 54 Climbing Jacksonville Center
Sat 09:46:04 AM 30.8775 -82.0381 334° Northwest 180 207 8,900  Level Jacksonville Center
Sat 09:47:04 AM 30.9217 -82.0667 331° Northwest 180 207 8,900  Level Jacksonville Center
Sat 09:48:04 AM 30.9675 -82.0931 334° Northwest 180 207 8,900  Level Jacksonville Center
Sat 09:49:04 AM 31.0117 -82.1217 331° Northwest 180 207 8,900  Level Jacksonville Center
Sat 09:50:04 AM 31.0600 -82.1506 333° Northwest 180 207 8,900 -50 Level Jacksonville Center
Sat 09:51:04 AM 31.1039 -82.1767 333° Northwest 180 207 8,800 -300 Descending Jacksonville Center
Sat 09:52:04 AM 31.1519 -82.2056 333° Northwest 180 207 8,300 -450 Descending Jacksonville Center
Sat 09:53:04 AM 31.2022 -82.2344 334° Northwest 180 207 7,900 -200 Descending Jacksonville Center
Sat 09:54:04 AM 31.2483 -82.2631 332° Northwest 180 207 7,900  Level Jacksonville Center
Sat 09:55:04 AM 31.2925 -82.2897 333° Northwest 180 207 7,900  Level Jacksonville Center
Sat 09:56:04 AM 31.3364 -82.3161 333° Northwest 180 207 7,900  Level Jacksonville Center
Sat 09:57:04 AM 31.3825 -82.3403 336° Northwest 174 200 7,900  Level Jacksonville Center
Sat 09:58:04 AM 31.4242 -82.3692 329° Northwest 174 200 7,900  Level Jacksonville Center
Sat 09:59:04 AM 31.4703 -82.3933 336° Northwest 179 206 7,900 50 Level Jacksonville Center
Sat 10:00:04 AM 31.5122 -82.4222 330° Northwest 179 206 8,000 50 Climbing Jacksonville Center
Sat 10:01:04 AM 31.5561 -82.4489 333° Northwest 179 206 8,000  Level Jacksonville Center
Sat 10:02:04 AM 31.6000 -82.4756 333° Northwest 174 200 8,000  Level Jacksonville Center
Sat 10:03:04 AM 31.6461 -82.4997 336° Northwest 174 200 8,000  Level Jacksonville Center
Sat 10:04:04 AM 31.6878 -82.5264 331° Northwest 174 200 8,000  Level Jacksonville Center
Sat 10:05:04 AM 31.7319 -82.5556 331° Northwest 179 206 8,000  Level Jacksonville Center
Sat 10:06:04 AM 31.7736 -82.5797 334° Northwest 174 200 8,000  Level Jacksonville Center
Sat 10:07:04 AM 31.8197 -82.6064 334° Northwest 174 200 8,000  Level Jacksonville Center
Sat 10:08:04 AM 31.8636 -82.6333 332° Northwest 179 206 8,000  Level Jacksonville Center
Sat 10:09:04 AM 31.9053 -82.6600 331° Northwest 179 206 8,000  Level Jacksonville Center
Sat 10:10:04 AM 31.9514 -82.6894 332° Northwest 179 206 8,000  Level Jacksonville Center
Sat 10:11:04 AM 31.9953 -82.7139 335° Northwest 179 206 8,000  Level Jacksonville Center
Sat 10:12:04 AM 32.0392 -82.7431 331° Northwest 179 206 8,000  Level Jacksonville Center
Sat 10:13:04 AM 32.0831 -82.7725 330° Northwest 179 206 8,000  Level Jacksonville Center
Sat 10:14:04 AM 32.1289 -82.7969 336° Northwest 179 206 8,000  Level Jacksonville Center
Sat 10:16:26 AM 32.2333 -82.8667 331° Northwest 181 208 8,000  Level Atlanta TRACON
Sat 10:17:32 AM 32.2833 -82.9000 331° Northwest 181 208 8,000  Level Atlanta TRACON
Sat 10:18:32 AM 32.3333 -82.9167 344° North 181 208 8,000  Level Atlanta TRACON
Sat 10:19:32 AM 32.3833 -82.9500 331° Northwest 182 209 8,000  Level Atlanta TRACON
Sat 10:20:38 AM 32.4167 -82.9833 320° Northwest 184 212 8,000  Level Atlanta TRACON
Sat 10:21:39 AM 32.4667 -83.0167 331° Northwest 183 211 8,000  Level Atlanta TRACON
Sat 10:22:39 AM 32.5167 -83.0333 344° North 178 205 8,000  Level Atlanta TRACON
Sat 10:23:39 AM 32.5500 -83.0667 320° Northwest 178 205 8,000 -48 Level Atlanta TRACON
Sat 10:28:53 AM 32.7680 -83.2200 320° Northwest 169 194 7,700 -53 Descending FlightAware ADS-B
Sat 10:29:19 AM 32.7830 -83.2300 331° Northwest 169 194 7,700 -91 Level FlightAware ADS-B
Sat 10:33:16 AM 32.9490 -83.3480 329° Northwest 173 199 7,300 -111 Descending FlightAware ADS-B
Sat 10:33:49 AM 32.9690 -83.3620 330° Northwest 173 199 7,200 -234 Descending FlightAware ADS-B
Sat 10:34:33 AM 33.0000 -83.3833 330° Northwest 173 199 7,000 -306 Descending Atlanta TRACON
Sat 10:35:27 AM 33.0333 -83.4167 320° Northwest 171 197 6,700 -368 Descending Atlanta TRACON
Sat 10:36:27 AM 33.0833 -83.4333 344° North 175 201 6,300 -350 Descending Atlanta TRACON
Sat 10:37:27 AM 33.1167 -83.4667 320° Northwest 171 197 6,000 -158 Descending Atlanta TRACON
Sat 10:38:21 AM 33.1500 -83.5000 320° Northwest 167 192 6,000  Level Atlanta TRACON
Sat 10:39:21 AM 33.2000 -83.5167 344° North 167 192 6,000  Level Atlanta TRACON
Sat 10:40:21 AM 33.2333 -83.5500 320° Northwest 164 189 6,000  Level Atlanta TRACON
Sat 10:41:21 AM 33.2667 -83.5833 320° Northwest 163 188 6,000 -265 Level Atlanta TRACON
Sat 10:47:09 AM 33.5330 -83.6810 320° Northwest 182 209 4,200 -337 Descending FlightAware ADS-B
Sat 10:47:35 AM 33.5550 -83.6830 356° North 179 206 3,900 -484 Descending FlightAware ADS-B
Sat 10:48:11 AM 33.5840 -83.6850 357° North 168 193 3,700 -162 Descending FlightAware ADS-B
Sat 10:48:49 AM 33.6110 -83.6880 355° North 158 182 3,700  Level FlightAware ADS-B
Sat 10:49:25 AM 33.6380 -83.6910 355° North 149 171 3,700  Level FlightAware ADS-B
Sat 10:50:07 AM 33.6630 -83.6940 354° North 144 166 3,700  Level FlightAware ADS-B
Sat 10:52:51 AM 33.7690 -83.7020 356° North 136 157 3,700  Level FlightAware ADS-B
Sat 10:53:24 AM 33.7900 -83.7040 355° North 134 154 3,700  Level FlightAware ADS-B
Sat 10:53:54 AM 33.8100 -83.7060 355° North 135 155 3,700  Level FlightAware ADS-B
Sat 10:54:39 AM 33.8370 -83.7080 356° North 138 159 3,700  Level FlightAware ADS-B
Sat 10:55:05 AM 33.8550 -83.7090 357° North 140 161 3,700  Level FlightAware ADS-B
Sat 10:55:40 AM 33.8750 -83.7110 355° North 140 161 3,700  Level FlightAware ADS-B
Sat 10:56:55 AM 33.9270 -83.7170 355° North 140 161 3,700  Level FlightAware ADS-B
Sat 10:57:11 AM 33.9360 -83.7210 340° North 141 162 3,700  Level FlightAware ADS-B
Sat 10:57:36 AM 33.9480 -83.7280 334° Northwest 141 162 3,700 -171 Level FlightAware ADS-B
Sat 10:58:21 AM 33.9833 -83.7500 334° Northwest 152 175 3,500 -424 Descending Atlanta TRACON
Sat 10:59:15 AM 34.0167 -83.7667 337° Northwest 155 178 3,000 -263 Descending Atlanta TRACON
Sat 11:00:15 AM 34.0500 -83.7833 337° Northwest 145 167 3,000  Level Atlanta TRACON
Sat 11:01:15 AM 34.0333 -83.8167 239° Southwest 117 135 3,000 -50 Level Atlanta TRACON
Sat 11:02:15 AM 34.0167 -83.8500 239° Southwest 110 127 2,900 -400 Descending Atlanta TRACON
Sat 11:03:15 AM 34.0000 -83.8833 239° Southwest 119 137 2,200 -667 Descending Atlanta TRACON
Sat 11:04:21 AM 33.9833 -83.9333 248° West 116 133 1,500 -636 Descending Atlanta TRACON
Sat 11:06:00 AM 33.9667 -83.9500 239° Southwest  Level FlightAware Approximate
Sat 11:13:00 AM 33.9781 -83.9624 239° Southwest  Level Estimated

Login

Don't have an account? Register now (free) for customized features, flight alerts, and more!